createdAt,value
2022-11-01T00:01:58.412Z,85.92
2022-11-01T00:04:27.388Z,86.09
2022-11-01T00:06:56.216Z,85.43
2022-11-01T00:09:25.179Z,84.75
2022-11-01T00:11:54.212Z,84.78
2022-11-01T00:14:23.335Z,85.20
2022-11-01T00:16:52.108Z,85.48
2022-11-01T00:19:20.865Z,85.82
2022-11-01T00:21:50.062Z,86.04
2022-11-01T00:24:18.851Z,86.48
2022-11-01T00:29:21.297Z,86.43
2022-11-01T00:31:50.079Z,86.20
2022-11-01T00:34:19.670Z,86.28
2022-11-01T00:36:48.359Z,86.59
2022-11-01T00:39:17.099Z,86.85
2022-11-01T00:41:45.777Z,86.69
2022-11-01T00:44:14.390Z,86.87
2022-11-01T00:46:43.301Z,86.91
2022-11-01T00:49:12.083Z,86.12
2022-11-01T00:51:40.822Z,85.54
2022-11-01T00:54:09.573Z,85.41
2022-11-01T00:56:38.375Z,85.78
2022-11-01T00:59:07.118Z,86.19
2022-11-01T01:01:36.032Z,86.63
2022-11-01T01:04:05.616Z,86.56
2022-11-01T01:06:34.308Z,86.44
2022-11-01T01:09:04.099Z,86.30
2022-11-01T01:11:32.912Z,87.04
2022-11-01T01:14:01.609Z,86.67
2022-11-01T01:16:30.364Z,86.94
2022-11-01T01:19:00.911Z,86.72
2022-11-01T01:21:29.793Z,86.35
2022-11-01T01:23:58.531Z,86.17
2022-11-01T01:26:27.140Z,85.73
2022-11-01T01:28:56.017Z,85.41
2022-11-01T01:31:24.757Z,85.43
2022-11-01T01:33:53.511Z,85.55
2022-11-01T01:36:22.310Z,84.96
2022-11-01T01:38:53.558Z,85.17
2022-11-01T01:41:40.499Z,85.06
2022-11-01T01:44:40.750Z,85.15
2022-11-01T01:47:10.801Z,85.26
2022-11-01T01:49:42.585Z,84.69
2022-11-01T01:52:12.224Z,84.51
2022-11-01T01:54:41.276Z,84.88
2022-11-01T01:57:11.361Z,84.49
2022-11-01T01:59:40.742Z,84.35
2022-11-01T02:02:09.804Z,84.31
2022-11-01T02:04:43.678Z,83.82
2022-11-01T02:07:13.036Z,83.68
2022-11-01T02:09:42.822Z,83.32
2022-11-01T02:12:14.024Z,83.63
2022-11-01T02:14:44.947Z,83.56
2022-11-01T02:17:24.853Z,83.40
2022-11-01T02:20:16.397Z,84.02
2022-11-01T02:23:11.596Z,84.07
2022-11-01T02:25:53.655Z,84.19
2022-11-01T02:28:40.341Z,84.06
2022-11-01T02:31:29.228Z,83.52
2022-11-01T02:34:01.468Z,83.41
2022-11-01T02:36:36.331Z,83.52
2022-11-01T02:39:12.007Z,83.28
2022-11-01T02:41:45.785Z,83.44
2022-11-01T02:44:20.656Z,82.69
2022-11-01T02:47:01.898Z,82.68
2022-11-01T02:49:34.468Z,82.63
2022-11-01T02:52:05.337Z,82.86
2022-11-01T02:54:39.941Z,83.17
2022-11-01T02:57:26.428Z,83.16
2022-11-01T03:00:02.880Z,82.82
2022-11-01T03:02:40.364Z,83.02
2022-11-01T03:05:25.981Z,83.14
2022-11-01T03:08:00.582Z,83.38
2022-11-01T03:10:39.059Z,82.90
2022-11-01T03:13:15.082Z,82.72
2022-11-01T03:15:54.082Z,82.80
2022-11-01T03:18:32.698Z,82.73
2022-11-01T03:21:15.197Z,82.71
2022-11-01T03:23:54.119Z,83.17
2022-11-01T03:26:27.979Z,83.09
2022-11-01T03:29:00.511Z,82.93
2022-11-01T03:31:33.071Z,83.15
2022-11-01T03:34:04.129Z,82.64
2022-11-01T03:36:38.094Z,82.43
2022-11-01T03:39:12.567Z,82.70
2022-11-01T03:41:45.350Z,82.60
2022-11-01T03:44:14.800Z,82.64
2022-11-01T03:46:45.385Z,82.61
2022-11-01T03:49:18.757Z,82.90
2022-11-01T03:51:48.227Z,83.25
2022-11-01T03:54:16.876Z,82.96
2022-11-01T03:56:45.835Z,83.47
2022-11-01T03:59:14.826Z,83.55
2022-11-01T04:01:43.890Z,83.48
2022-11-01T04:04:12.998Z,83.57
2022-11-01T04:06:41.711Z,83.42
2022-11-01T04:09:10.469Z,83.30
2022-11-01T04:11:39.239Z,83.39
2022-11-01T04:14:25.780Z,83.46
2022-11-01T04:17:12.563Z,82.76
2022-11-01T04:19:59.812Z,83.11
2022-11-01T04:22:28.472Z,83.11
2022-11-01T04:24:57.370Z,83.74
2022-11-01T04:27:26.089Z,83.50
2022-11-01T04:29:59.645Z,83.46
2022-11-01T04:32:32.321Z,83.37
2022-11-01T04:37:34.621Z,83.29
2022-11-01T04:40:03.598Z,83.53
2022-11-01T04:42:34.070Z,83.40
2022-11-01T04:45:03.630Z,83.49
2022-11-01T04:47:32.335Z,83.61
2022-11-01T04:50:01.277Z,83.55
2022-11-01T04:52:29.958Z,83.39
2022-11-01T04:54:58.868Z,82.94
2022-11-01T04:57:27.614Z,83.30
2022-11-01T04:59:57.832Z,83.17
2022-11-01T05:02:26.874Z,83.53
2022-11-01T05:04:55.674Z,83.12
2022-11-01T05:07:24.633Z,83.03
2022-11-01T05:09:53.330Z,83.26
2022-11-01T05:12:22.127Z,82.94
2022-11-01T05:14:55.858Z,82.78
2022-11-01T05:17:25.955Z,82.57
2022-11-01T05:19:54.915Z,82.76
2022-11-01T05:22:23.656Z,83.13
2022-11-01T05:24:52.825Z,83.23
2022-11-01T05:27:21.721Z,82.95
2022-11-01T05:29:50.492Z,82.68
2022-11-01T05:32:19.323Z,82.27
2022-11-01T05:34:49.405Z,82.59
2022-11-01T05:37:18.080Z,82.50
2022-11-01T05:39:46.907Z,82.93
2022-11-01T05:42:15.710Z,83.27
2022-11-01T05:44:44.545Z,83.13
2022-11-01T05:47:17.081Z,82.72
2022-11-01T05:49:46.745Z,82.34
2022-11-01T05:52:15.426Z,82.67
2022-11-01T05:54:44.220Z,82.74
2022-11-01T05:57:13.025Z,82.78
2022-11-01T05:59:41.753Z,82.45
2022-11-01T06:02:10.782Z,82.28
2022-11-01T06:04:40.015Z,82.35
2022-11-01T06:07:08.790Z,82.36
2022-11-01T06:09:37.609Z,82.12
2022-11-01T06:12:07.241Z,82.19
2022-11-01T06:14:36.249Z,82.28
2022-11-01T06:17:05.163Z,83.16
2022-11-01T06:19:34.030Z,83.19
2022-11-01T06:22:03.434Z,83.83
2022-11-01T06:24:32.187Z,83.56
2022-11-01T06:27:00.985Z,83.41
2022-11-01T06:29:29.785Z,83.30
2022-11-01T06:31:58.650Z,82.72
2022-11-01T06:34:27.473Z,82.44
2022-11-01T06:36:56.305Z,82.48
2022-11-01T06:39:25.286Z,82.25
2022-11-01T06:41:54.533Z,82.22
2022-11-01T06:44:23.976Z,82.35
2022-11-01T06:46:53.235Z,82.07
2022-11-01T06:49:22.144Z,82.49
2022-11-01T06:51:51.029Z,82.33
2022-11-01T06:54:19.817Z,82.25
2022-11-01T06:56:49.215Z,82.65
2022-11-01T06:59:17.977Z,82.65
2022-11-01T07:01:47.074Z,82.48
2022-11-01T07:04:15.969Z,82.06
2022-11-01T07:06:44.858Z,81.78
2022-11-01T07:09:13.851Z,82.03
2022-11-01T07:11:42.575Z,81.83
2022-11-01T07:14:11.678Z,81.69
2022-11-01T07:16:40.881Z,81.84
2022-11-01T07:19:09.998Z,81.68
2022-11-01T07:21:39.118Z,81.42
2022-11-01T07:24:08.239Z,81.80
2022-11-01T07:26:37.104Z,81.68
2022-11-01T07:29:05.991Z,81.55
2022-11-01T07:31:38.737Z,81.62
2022-11-01T07:34:07.914Z,81.28
2022-11-01T07:36:36.977Z,81.25
2022-11-01T07:39:06.298Z,81.40
2022-11-01T07:41:35.730Z,81.73
2022-11-01T07:44:05.888Z,81.75
2022-11-01T07:46:35.482Z,81.32
2022-11-01T07:49:04.716Z,81.29
2022-11-01T07:51:33.400Z,81.47
2022-11-01T07:54:02.947Z,82.00
2022-11-01T07:56:32.527Z,81.56
2022-11-01T07:59:02.677Z,81.50
2022-11-01T08:01:31.512Z,81.14
2022-11-01T08:04:00.891Z,81.14
2022-11-01T08:06:30.846Z,81.59
2022-11-01T08:09:00.520Z,81.98
2022-11-01T08:11:29.971Z,81.69
2022-11-01T08:14:02.884Z,81.52
2022-11-01T08:16:34.881Z,81.26
2022-11-01T08:19:03.891Z,80.78
2022-11-01T08:21:32.956Z,81.25
2022-11-01T08:24:01.810Z,80.88
2022-11-01T08:26:30.639Z,80.64
2022-11-01T08:28:59.916Z,80.89
2022-11-01T08:31:28.649Z,80.70
2022-11-01T08:33:57.570Z,81.00
2022-11-01T08:36:27.038Z,81.13
2022-11-01T08:38:57.212Z,81.04
2022-11-01T08:41:28.426Z,80.81
2022-11-01T08:43:59.058Z,81.01
2022-11-01T08:46:28.008Z,80.95
2022-11-01T08:48:58.968Z,80.71
2022-11-01T08:51:27.932Z,80.81
2022-11-01T08:53:57.101Z,81.20
2022-11-01T08:56:27.193Z,81.66
2022-11-01T08:58:56.900Z,81.57
2022-11-01T09:01:26.831Z,82.38
2022-11-01T09:03:58.222Z,82.36
2022-11-01T09:06:29.040Z,82.25
2022-11-01T09:09:00.857Z,81.79
2022-11-01T09:11:30.737Z,81.76
2022-11-01T09:14:00.890Z,81.77
2022-11-01T09:16:30.163Z,82.04
2022-11-01T09:19:01.300Z,81.84
2022-11-01T09:21:32.037Z,82.16
2022-11-01T09:24:01.730Z,81.66
2022-11-01T09:26:30.892Z,81.90
2022-11-01T09:28:59.876Z,81.24
2022-11-01T09:31:28.805Z,81.09
2022-11-01T09:33:58.090Z,81.21
2022-11-01T09:36:27.955Z,80.63
2022-11-01T09:38:59.006Z,81.03
2022-11-01T09:41:32.741Z,80.94
2022-11-01T09:44:05.663Z,80.87
2022-11-01T09:46:47.745Z,81.29
2022-11-01T09:49:22.039Z,81.06
2022-11-01T09:51:51.268Z,80.75
2022-11-01T09:54:22.651Z,80.36
2022-11-01T09:57:01.266Z,80.35
2022-11-01T09:59:37.325Z,80.76
2022-11-01T10:02:30.047Z,80.74
2022-11-01T10:05:17.694Z,80.77
2022-11-01T10:07:55.418Z,80.34
2022-11-01T10:10:38.740Z,80.34
2022-11-01T10:13:25.100Z,80.27
2022-11-01T10:16:01.797Z,80.67
2022-11-01T10:18:32.707Z,81.10
2022-11-01T10:21:04.828Z,81.10
2022-11-01T10:23:44.130Z,81.29
2022-11-01T10:26:18.794Z,80.97
2022-11-01T10:28:54.867Z,80.42
2022-11-01T10:31:26.908Z,80.39
2022-11-01T10:34:01.636Z,80.85
2022-11-01T10:36:33.197Z,80.68
2022-11-01T10:42:10.221Z,80.81
2022-11-01T10:44:43.999Z,80.76
2022-11-01T10:47:18.709Z,80.71
2022-11-01T10:52:47.712Z,80.66
2022-11-01T10:55:20.789Z,80.84
2022-11-01T10:57:56.096Z,80.71
2022-11-01T11:00:25.170Z,80.47
2022-11-01T11:02:58.195Z,80.40
2022-11-01T11:05:29.417Z,80.46
2022-11-01T11:07:58.639Z,80.84
2022-11-01T11:10:29.939Z,81.36
2022-11-01T11:13:01.461Z,81.31
2022-11-01T11:15:38.045Z,81.17
2022-11-01T11:18:16.304Z,81.09
2022-11-01T11:20:50.295Z,81.20
2022-11-01T11:23:22.174Z,81.27
2022-11-01T11:25:51.832Z,81.42
2022-11-01T11:28:25.276Z,81.41
2022-11-01T11:30:54.248Z,80.76
2022-11-01T11:33:23.693Z,80.86
2022-11-01T11:35:58.197Z,81.13
2022-11-01T11:38:44.645Z,81.24
2022-11-01T11:41:27.522Z,81.21
2022-11-01T11:43:57.086Z,81.76
2022-11-01T11:46:26.617Z,81.55
2022-11-01T11:48:58.731Z,81.31
2022-11-01T11:51:29.899Z,81.54
2022-11-01T11:54:20.075Z,80.78
2022-11-01T11:56:50.597Z,80.55
2022-11-01T11:59:25.747Z,81.09
2022-11-01T12:02:01.980Z,80.44
2022-11-01T12:04:38.173Z,79.96
2022-11-01T12:07:07.788Z,79.36
2022-11-01T12:09:44.317Z,79.58
2022-11-01T12:12:19.595Z,80.48
2022-11-01T12:14:48.301Z,80.34
2022-11-01T12:17:36.158Z,80.27
2022-11-01T12:20:13.596Z,79.87
2022-11-01T12:22:46.825Z,79.71
2022-11-01T12:25:19.420Z,79.97
2022-11-01T12:28:01.226Z,80.37
2022-11-01T12:30:34.594Z,80.14
2022-11-01T12:33:17.217Z,80.51
2022-11-01T12:35:47.961Z,80.13
2022-11-01T12:38:46.786Z,79.51
2022-11-01T12:41:28.124Z,79.91
2022-11-01T12:44:12.794Z,80.05
2022-11-01T12:46:48.917Z,80.50
2022-11-01T12:49:26.985Z,80.44
2022-11-01T12:52:01.410Z,80.57
2022-11-01T12:54:36.661Z,80.72
2022-11-01T12:57:13.399Z,80.71
2022-11-01T12:59:43.440Z,80.52
2022-11-01T13:02:26.082Z,80.68
2022-11-01T13:05:00.310Z,80.52
2022-11-01T13:07:41.536Z,80.70
2022-11-01T13:10:19.910Z,80.61
2022-11-01T13:12:57.515Z,80.77
2022-11-01T13:15:32.809Z,80.90
2022-11-01T13:18:09.844Z,81.08
2022-11-01T13:20:49.944Z,80.88
2022-11-01T13:23:25.302Z,80.87
2022-11-01T13:26:00.572Z,81.15
2022-11-01T13:28:54.484Z,81.59
2022-11-01T13:31:37.931Z,81.89
2022-11-01T13:34:34.996Z,81.79
2022-11-01T13:37:13.263Z,82.15
2022-11-01T13:39:57.811Z,82.39
2022-11-01T13:42:31.568Z,82.28
2022-11-01T13:45:20.504Z,82.12
2022-11-01T13:47:56.767Z,82.14
2022-11-01T13:50:57.494Z,81.88
2022-11-01T13:53:32.704Z,81.80
2022-11-01T13:56:06.407Z,82.41
2022-11-01T13:58:35.500Z,82.52
2022-11-01T14:01:30.073Z,82.26
2022-11-01T14:04:37.290Z,82.36
2022-11-01T14:07:16.960Z,82.90
2022-11-01T14:09:48.354Z,82.18
2022-11-01T14:12:39.527Z,81.60
2022-11-01T14:15:27.312Z,81.42
2022-11-01T14:18:08.656Z,81.11
2022-11-01T14:20:52.204Z,80.76
2022-11-01T14:24:05.902Z,80.77
2022-11-01T14:27:14.489Z,81.33
2022-11-01T14:29:43.505Z,81.49
2022-11-01T14:32:15.066Z,81.33
2022-11-01T14:34:45.774Z,81.43
2022-11-01T14:37:26.458Z,81.76
2022-11-01T14:40:14.358Z,81.48
2022-11-01T14:42:46.848Z,81.10
2022-11-01T14:45:29.822Z,80.64
2022-11-01T14:48:03.188Z,81.09
2022-11-01T14:50:42.416Z,81.37
2022-11-01T14:53:21.921Z,81.55
2022-11-01T14:56:05.231Z,81.86
2022-11-01T14:58:34.128Z,81.29
2022-11-01T15:01:07.700Z,80.60
2022-11-01T15:03:37.012Z,80.56
2022-11-01T15:06:22.195Z,80.15
2022-11-01T15:08:50.903Z,80.30
2022-11-01T15:11:20.121Z,80.54
2022-11-01T15:13:49.562Z,80.99
2022-11-01T15:16:23.796Z,81.25
2022-11-01T15:18:55.470Z,80.72
2022-11-01T15:21:30.565Z,80.40
2022-11-01T15:24:02.613Z,79.89
2022-11-01T15:26:33.642Z,80.07
2022-11-01T15:29:04.975Z,79.88
2022-11-01T15:31:35.587Z,79.90
2022-11-01T15:34:20.335Z,79.93
2022-11-01T15:36:49.382Z,80.01
2022-11-01T15:39:20.799Z,79.56
2022-11-01T15:41:50.630Z,79.29
2022-11-01T15:44:22.755Z,79.37
2022-11-01T15:46:54.200Z,79.14
2022-11-01T15:49:26.321Z,79.33
2022-11-01T15:52:01.153Z,79.27
2022-11-01T15:54:39.802Z,79.70
2022-11-01T15:57:17.446Z,80.06
2022-11-01T15:59:53.731Z,80.71
2022-11-01T16:02:27.575Z,81.06
2022-11-01T16:04:57.702Z,80.31
2022-11-01T16:07:30.170Z,79.88
2022-11-01T16:10:03.296Z,79.48
2022-11-01T16:12:36.339Z,79.83
2022-11-01T16:15:09.304Z,80.24
2022-11-01T16:17:40.670Z,80.23
2022-11-01T16:20:29.594Z,80.24
2022-11-01T16:23:00.681Z,79.85
2022-11-01T16:25:32.542Z,79.80
2022-11-01T16:28:06.824Z,79.59
2022-11-01T16:30:54.464Z,79.50
2022-11-01T16:33:26.291Z,79.76
2022-11-01T16:35:57.431Z,79.96
2022-11-01T16:38:40.924Z,80.36
2022-11-01T16:41:18.892Z,80.49
2022-11-01T16:43:49.011Z,80.60
2022-11-01T16:46:19.031Z,80.65
2022-11-01T16:48:53.696Z,80.40
2022-11-01T16:51:26.689Z,80.39
2022-11-01T16:53:56.133Z,80.49
2022-11-01T16:56:36.564Z,80.35
2022-11-01T16:59:11.812Z,80.46
2022-11-01T17:01:41.258Z,80.12
2022-11-01T17:04:13.173Z,80.18
2022-11-01T17:06:41.891Z,80.21
2022-11-01T17:09:14.380Z,80.50
2022-11-01T17:11:50.464Z,80.54
2022-11-01T17:14:22.198Z,80.30
2022-11-01T17:16:52.965Z,80.38
2022-11-01T17:19:31.290Z,80.49
2022-11-01T17:22:03.494Z,80.38
2022-11-01T17:24:33.608Z,80.42
2022-11-01T17:27:06.263Z,80.64
2022-11-01T17:29:35.271Z,80.31
2022-11-01T17:32:08.753Z,80.78
2022-11-01T17:34:39.183Z,80.48
2022-11-01T17:37:13.400Z,80.59
2022-11-01T17:39:42.226Z,80.60
2022-11-01T17:42:13.042Z,80.72
2022-11-01T17:44:41.884Z,80.87
2022-11-01T17:47:15.032Z,80.65
2022-11-01T17:49:44.112Z,81.10
2022-11-01T17:52:13.405Z,80.89
2022-11-01T17:54:43.235Z,80.93
2022-11-01T17:57:13.580Z,81.03
2022-11-01T17:59:42.490Z,80.82
2022-11-01T18:02:13.009Z,80.71
2022-11-01T18:04:42.421Z,80.64
2022-11-01T18:07:13.237Z,80.82
2022-11-01T18:09:42.566Z,81.05
2022-11-01T18:12:20.266Z,81.02
2022-11-01T18:15:03.424Z,81.10
2022-11-01T18:17:48.959Z,80.76
2022-11-01T18:20:35.799Z,80.36
2022-11-01T18:23:09.386Z,80.72
2022-11-01T18:25:41.365Z,80.23
2022-11-01T18:28:14.977Z,80.30
2022-11-01T18:30:48.298Z,80.21
2022-11-01T18:33:25.053Z,80.18
2022-11-01T18:36:01.062Z,80.24
2022-11-01T18:38:37.466Z,80.26
2022-11-01T18:41:13.386Z,80.31
2022-11-01T18:43:43.746Z,80.22
2022-11-01T18:46:25.191Z,79.96
2022-11-01T18:49:00.056Z,80.11
2022-11-01T18:51:32.624Z,80.00
2022-11-01T18:54:21.217Z,79.86
2022-11-01T18:56:53.529Z,79.62
2022-11-01T18:59:28.069Z,79.50
2022-11-01T19:02:01.496Z,79.40
2022-11-01T19:04:35.803Z,79.64
2022-11-01T19:07:13.158Z,79.38
2022-11-01T19:09:46.460Z,79.62
2022-11-01T19:12:20.579Z,79.56
2022-11-01T19:14:59.999Z,79.74
2022-11-01T19:17:35.773Z,79.91
2022-11-01T19:20:19.078Z,79.85
2022-11-01T19:22:49.359Z,80.46
2022-11-01T19:25:21.985Z,80.21
2022-11-01T19:27:54.132Z,80.47
2022-11-01T19:30:25.909Z,80.34
2022-11-01T19:32:59.068Z,80.40
2022-11-01T19:35:28.788Z,80.39
2022-11-01T19:37:59.073Z,80.36
2022-11-01T19:40:32.102Z,80.51
2022-11-01T19:43:10.442Z,80.67
2022-11-01T19:45:45.546Z,80.72
2022-11-01T19:48:19.555Z,80.37
2022-11-01T19:50:48.701Z,80.65
2022-11-01T19:53:22.989Z,80.50
2022-11-01T19:55:55.706Z,80.18
2022-11-01T19:58:42.150Z,80.46
2022-11-01T20:01:49.213Z,80.44
2022-11-01T20:04:29.073Z,80.49
2022-11-01T20:07:02.004Z,80.39
2022-11-01T20:09:36.400Z,80.30
2022-11-01T20:12:06.334Z,80.29
2022-11-01T20:14:36.594Z,80.69
2022-11-01T20:17:06.206Z,80.46
2022-11-01T20:19:35.847Z,80.34
2022-11-01T20:22:05.194Z,80.43
2022-11-01T20:24:34.637Z,80.71
2022-11-01T20:27:03.985Z,81.08
2022-11-01T20:29:33.041Z,81.40
2022-11-01T20:32:02.163Z,82.13
2022-11-01T20:34:31.573Z,82.01
2022-11-01T20:37:29.510Z,81.98
2022-11-01T20:39:57.023Z,82.12
2022-11-01T20:42:26.627Z,82.03
2022-11-01T20:44:57.361Z,82.35
2022-11-01T20:47:27.233Z,82.29
2022-11-01T20:49:58.494Z,82.81
2022-11-01T20:52:45.960Z,83.06
2022-11-01T20:55:15.175Z,82.92
2022-11-01T20:57:44.799Z,82.48
2022-11-01T21:00:18.004Z,82.71
2022-11-01T21:02:47.851Z,82.46
2022-11-01T21:05:23.828Z,82.16
2022-11-01T21:07:59.031Z,81.70
2022-11-01T21:10:31.546Z,81.90
2022-11-01T21:13:02.242Z,81.71
2022-11-01T21:15:35.910Z,82.16
2022-11-01T21:18:39.198Z,82.50
2022-11-01T21:21:30.545Z,82.67
2022-11-01T21:24:00.779Z,82.45
2022-11-01T21:26:32.044Z,82.29
2022-11-01T21:29:05.188Z,82.54
2022-11-01T21:31:38.225Z,81.84
2022-11-01T21:34:25.398Z,82.25
2022-11-01T21:36:54.602Z,82.20
2022-11-01T21:39:26.369Z,82.15
2022-11-01T21:41:57.188Z,82.46
2022-11-01T21:44:30.443Z,82.16
2022-11-01T21:47:11.981Z,81.89
2022-11-01T21:49:41.161Z,81.51
2022-11-01T21:54:46.015Z,81.05
2022-11-01T21:57:16.629Z,80.95
2022-11-01T21:59:45.882Z,80.85
2022-11-01T22:02:16.055Z,80.94
2022-11-01T22:04:46.845Z,80.78
2022-11-01T22:07:15.572Z,80.39
2022-11-01T22:09:44.473Z,80.13
2022-11-01T22:12:13.204Z,80.48
2022-11-01T22:14:41.886Z,80.58
2022-11-01T22:17:10.805Z,80.48
2022-11-01T22:19:39.572Z,80.38
2022-11-01T22:22:08.271Z,80.26
2022-11-01T22:24:37.018Z,80.30
2022-11-01T22:27:05.811Z,80.36
2022-11-01T22:29:35.029Z,80.40
2022-11-01T22:32:04.159Z,80.58
2022-11-01T22:34:32.970Z,80.83
2022-11-01T22:37:01.968Z,80.46
2022-11-01T22:39:31.048Z,80.46
2022-11-01T22:42:01.817Z,80.48
2022-11-01T22:44:32.566Z,80.59
2022-11-01T22:47:02.999Z,80.59
2022-11-01T22:49:34.185Z,80.22
2022-11-01T22:52:05.459Z,80.08
2022-11-01T22:54:40.879Z,80.17
2022-11-01T22:57:16.512Z,80.32
2022-11-01T22:59:49.854Z,80.46
2022-11-01T23:02:28.022Z,80.51
2022-11-01T23:05:02.530Z,80.62
2022-11-01T23:07:34.827Z,80.26
2022-11-01T23:10:07.766Z,80.35
2022-11-01T23:12:56.007Z,80.60
2022-11-01T23:15:28.179Z,80.66
2022-11-01T23:18:02.697Z,80.40
2022-11-01T23:20:31.621Z,80.21
2022-11-01T23:23:01.228Z,80.40
2022-11-01T23:25:32.233Z,80.72
2022-11-01T23:28:01.188Z,80.56
2022-11-01T23:30:30.022Z,80.74
2022-11-01T23:32:59.187Z,80.28
2022-11-01T23:35:28.067Z,80.30
2022-11-01T23:37:58.394Z,80.65
2022-11-01T23:40:32.585Z,80.81
2022-11-01T23:43:01.627Z,80.74
2022-11-01T23:45:33.814Z,80.55
2022-11-01T23:48:02.682Z,80.52
2022-11-01T23:50:34.668Z,80.40
2022-11-01T23:53:06.273Z,80.36
2022-11-01T23:55:38.935Z,81.11
2022-11-01T23:58:11.166Z,80.88
